createdAt,value
2022-09-21T00:01:16.220Z,14.28
2022-09-21T00:03:44.186Z,14.01
2022-09-21T00:06:19.363Z,13.90
2022-09-21T00:08:47.447Z,13.73
2022-09-21T00:11:24.821Z,13.84
2022-09-21T00:13:58.871Z,13.95
2022-09-21T00:16:25.968Z,13.73
2022-09-21T00:18:52.991Z,13.86
2022-09-21T00:21:20.031Z,13.55
2022-09-21T00:23:47.055Z,13.84
2022-09-21T00:26:17.512Z,13.69
2022-09-21T00:28:45.042Z,13.73
2022-09-21T00:31:14.629Z,13.48
2022-09-21T00:33:43.642Z,13.16
2022-09-21T00:36:19.542Z,13.57
2022-09-21T00:38:53.753Z,13.26
2022-09-21T00:41:20.756Z,13.49
2022-09-21T00:44:18.732Z,13.07
2022-09-21T00:46:48.589Z,13.09
2022-09-21T00:49:16.393Z,13.06
2022-09-21T00:51:44.474Z,13.07
2022-09-21T00:54:18.187Z,13.15
2022-09-21T00:56:45.173Z,13.11
2022-09-21T00:59:13.995Z,13.15
2022-09-21T01:01:42.835Z,13.23
2022-09-21T01:04:11.830Z,13.25
2022-09-21T01:06:38.973Z,13.31
2022-09-21T01:09:05.939Z,13.26
2022-09-21T01:12:03.177Z,13.08
2022-09-21T01:14:29.855Z,12.99
2022-09-21T01:17:10.277Z,13.23
2022-09-21T01:20:08.339Z,12.97
2022-09-21T01:22:54.122Z,13.21
2022-09-21T01:25:48.125Z,13.30
2022-09-21T01:28:20.916Z,13.10
2022-09-21T01:30:50.824Z,13.07
2022-09-21T01:33:25.949Z,12.66
2022-09-21T01:36:08.875Z,11.97
2022-09-21T01:38:45.497Z,12.16
2022-09-21T01:41:16.352Z,12.57
2022-09-21T01:43:48.308Z,12.80
2022-09-21T01:46:19.832Z,12.92
2022-09-21T01:48:50.875Z,12.98
2022-09-21T01:51:20.774Z,12.94
2022-09-21T01:54:22.478Z,12.94
2022-09-21T01:56:59.495Z,12.96
2022-09-21T01:59:35.231Z,12.93
2022-09-21T02:02:16.046Z,12.75
2022-09-21T02:04:43.631Z,12.80
2022-09-21T02:07:10.667Z,12.82
2022-09-21T02:09:38.351Z,12.88
2022-09-21T02:12:05.623Z,12.88
2022-09-21T02:14:34.006Z,12.85
2022-09-21T02:17:25.195Z,12.70
2022-09-21T02:19:58.082Z,12.84
2022-09-21T02:22:39.871Z,13.00
2022-09-21T02:25:14.113Z,13.04
2022-09-21T02:27:55.096Z,12.97
2022-09-21T02:30:25.356Z,12.97
2022-09-21T02:33:11.512Z,12.75
2022-09-21T02:35:44.175Z,12.61
2022-09-21T02:38:22.829Z,12.86
2022-09-21T02:40:56.787Z,12.80
2022-09-21T02:43:30.452Z,12.78
2022-09-21T02:46:04.333Z,12.02
2022-09-21T02:48:44.237Z,12.06
2022-09-21T02:51:17.000Z,12.28
2022-09-21T02:53:46.759Z,12.44
2022-09-21T02:56:14.256Z,12.39
2022-09-21T02:58:46.297Z,12.47
2022-09-21T03:01:15.892Z,12.35
2022-09-21T03:03:42.804Z,11.99
2022-09-21T03:06:09.629Z,12.27
2022-09-21T03:08:36.439Z,11.90
2022-09-21T03:11:03.433Z,12.10
2022-09-21T03:13:30.369Z,12.14
2022-09-21T03:16:02.340Z,11.88
2022-09-21T03:18:29.745Z,11.96
2022-09-21T03:20:56.699Z,12.09
2022-09-21T03:23:23.844Z,12.11
2022-09-21T03:25:52.342Z,11.89
2022-09-21T03:28:19.988Z,12.13
2022-09-21T03:30:49.401Z,11.79
2022-09-21T03:33:16.988Z,12.01
2022-09-21T03:35:44.150Z,11.90
2022-09-21T03:38:11.358Z,11.96
2022-09-21T03:40:38.213Z,11.54
2022-09-21T03:43:04.921Z,11.94
2022-09-21T03:45:31.643Z,11.24
2022-09-21T03:47:59.955Z,11.38
2022-09-21T03:50:28.971Z,11.51
2022-09-21T03:52:56.713Z,11.81
2022-09-21T03:55:23.485Z,11.85
2022-09-21T03:57:50.510Z,12.07
2022-09-21T04:00:17.411Z,11.87
2022-09-21T04:02:44.394Z,11.45
2022-09-21T04:05:14.920Z,11.45
2022-09-21T04:07:43.476Z,11.15
2022-09-21T04:10:13.129Z,11.12
2022-09-21T04:12:44.534Z,11.51
2022-09-21T04:15:13.979Z,11.58
2022-09-21T04:17:41.192Z,11.48
2022-09-21T04:20:09.111Z,10.90
2022-09-21T04:22:39.979Z,10.92
2022-09-21T04:25:10.391Z,10.76
2022-09-21T04:27:37.100Z,10.92
2022-09-21T04:30:05.123Z,11.00
2022-09-21T04:32:32.060Z,11.63
2022-09-21T04:34:59.116Z,11.22
2022-09-21T04:37:25.796Z,11.08
2022-09-21T04:39:53.642Z,11.63
2022-09-21T04:42:20.370Z,11.12
2022-09-21T04:44:47.263Z,10.88
2022-09-21T04:47:14.583Z,11.54
2022-09-21T04:49:42.333Z,11.97
2022-09-21T04:52:09.090Z,11.56
2022-09-21T04:54:35.927Z,11.67
2022-09-21T04:57:02.846Z,11.80
2022-09-21T04:59:29.741Z,11.86
2022-09-21T05:01:56.473Z,11.87
2022-09-21T05:04:23.275Z,12.24
2022-09-21T05:06:49.971Z,11.96
2022-09-21T05:09:35.519Z,12.30
2022-09-21T05:12:03.131Z,12.02
2022-09-21T05:14:30.023Z,12.12
2022-09-21T05:16:56.839Z,12.00
2022-09-21T05:19:23.657Z,11.66
2022-09-21T05:21:50.643Z,11.87
2022-09-21T05:24:17.456Z,11.79
2022-09-21T05:26:44.324Z,12.32
2022-09-21T05:29:11.308Z,12.30
2022-09-21T05:31:48.862Z,12.09
2022-09-21T05:34:36.425Z,12.32
2022-09-21T05:37:13.060Z,12.45
2022-09-21T05:39:40.240Z,12.70
2022-09-21T05:42:07.465Z,12.41
2022-09-21T05:44:34.676Z,12.48
2022-09-21T05:47:15.542Z,12.74
2022-09-21T05:50:06.035Z,12.84
2022-09-21T05:52:53.214Z,12.78
2022-09-21T05:55:31.856Z,12.99
2022-09-21T05:58:10.362Z,13.43
2022-09-21T06:01:05.448Z,13.89
2022-09-21T06:03:36.098Z,13.44
2022-09-21T06:06:03.766Z,13.53
2022-09-21T06:08:30.927Z,13.41
2022-09-21T06:10:57.767Z,13.52
2022-09-21T06:13:24.506Z,13.56
2022-09-21T06:15:51.266Z,13.58
2022-09-21T06:18:18.469Z,13.46
2022-09-21T06:20:45.984Z,13.57
2022-09-21T06:23:14.267Z,13.82
2022-09-21T06:25:42.136Z,13.80
2022-09-21T06:28:11.426Z,13.98
2022-09-21T06:30:40.974Z,14.40
2022-09-21T06:33:08.432Z,14.43
2022-09-21T06:35:36.685Z,14.80
2022-09-21T06:38:06.787Z,14.51
2022-09-21T06:40:37.325Z,14.94
2022-09-21T06:43:05.222Z,15.41
2022-09-21T06:45:32.702Z,14.78
2022-09-21T06:47:59.559Z,15.12
2022-09-21T06:50:26.807Z,15.04
2022-09-21T06:52:54.315Z,15.58
2022-09-21T06:55:21.021Z,15.48
2022-09-21T06:57:47.726Z,15.71
2022-09-21T07:00:15.057Z,15.83
2022-09-21T07:02:45.618Z,16.13
2022-09-21T07:05:12.976Z,16.12
2022-09-21T07:07:40.486Z,16.35
2022-09-21T07:10:14.512Z,16.62
2022-09-21T07:12:44.915Z,16.72
2022-09-21T07:15:11.996Z,16.83
2022-09-21T07:17:39.733Z,16.55
2022-09-21T07:20:08.043Z,16.83
2022-09-21T07:22:35.798Z,16.67
2022-09-21T07:25:04.333Z,16.78
2022-09-21T07:27:32.643Z,16.86
2022-09-21T07:29:59.528Z,16.50
2022-09-21T07:32:26.260Z,16.67
2022-09-21T07:34:56.569Z,16.59
2022-09-21T07:37:27.300Z,15.83
2022-09-21T07:39:54.679Z,16.07
2022-09-21T07:42:22.963Z,16.49
2022-09-21T07:44:50.971Z,16.74
2022-09-21T07:47:18.042Z,16.89
2022-09-21T07:49:47.103Z,15.98
2022-09-21T07:52:15.466Z,16.41
2022-09-21T07:54:42.401Z,16.33
2022-09-21T07:57:27.778Z,16.63
2022-09-21T07:59:58.282Z,16.51
2022-09-21T08:02:25.798Z,15.90
2022-09-21T08:04:54.146Z,16.61
2022-09-21T08:07:21.104Z,16.24
2022-09-21T08:09:49.449Z,16.93
2022-09-21T08:12:18.727Z,16.93
2022-09-21T08:14:45.799Z,16.44
2022-09-21T08:17:12.593Z,16.56
2022-09-21T08:19:39.436Z,16.54
2022-09-21T08:22:06.753Z,16.85
2022-09-21T08:24:33.751Z,16.72
2022-09-21T08:27:00.739Z,16.74
2022-09-21T08:29:27.667Z,17.55
2022-09-21T08:31:54.746Z,16.99
2022-09-21T08:34:23.248Z,17.26
2022-09-21T08:36:55.084Z,17.39
2022-09-21T08:39:22.731Z,17.18
2022-09-21T08:42:00.475Z,17.08
2022-09-21T08:44:51.000Z,16.71
2022-09-21T08:47:23.343Z,17.10
2022-09-21T08:49:58.262Z,17.42
2022-09-21T08:52:26.759Z,17.60
2022-09-21T08:55:18.899Z,17.81
2022-09-21T08:57:45.877Z,17.84
2022-09-21T09:00:18.475Z,17.64
2022-09-21T09:03:05.012Z,18.00
2022-09-21T09:05:34.643Z,18.26
2022-09-21T09:08:22.249Z,18.27
2022-09-21T09:10:58.095Z,18.55
2022-09-21T09:13:46.796Z,18.74
2022-09-21T09:16:29.568Z,19.28
2022-09-21T09:19:19.795Z,18.62
2022-09-21T09:21:46.996Z,18.21
2022-09-21T09:24:30.200Z,18.41
2022-09-21T09:27:07.200Z,18.84
2022-09-21T09:29:37.801Z,18.17
2022-09-21T09:32:09.599Z,18.65
2022-09-21T09:34:42.673Z,19.09
2022-09-21T09:37:17.544Z,19.13
2022-09-21T09:39:53.867Z,18.21
2022-09-21T09:42:26.184Z,18.38
2022-09-21T09:45:35.058Z,18.89
2022-09-21T09:48:19.988Z,18.81
2022-09-21T09:50:46.975Z,17.81
2022-09-21T09:53:18.296Z,17.01
2022-09-21T09:55:47.966Z,18.22
2022-09-21T09:58:45.076Z,18.52
2022-09-21T10:01:39.602Z,18.93
2022-09-21T10:04:08.859Z,19.46
2022-09-21T10:06:35.704Z,19.01
2022-09-21T10:09:18.259Z,19.45
2022-09-21T10:11:45.353Z,19.25
2022-09-21T10:14:19.183Z,19.23
2022-09-21T10:16:46.470Z,19.29
2022-09-21T10:19:21.244Z,19.26
2022-09-21T10:21:52.317Z,19.48
2022-09-21T10:24:34.155Z,18.84
2022-09-21T10:27:05.331Z,18.38
2022-09-21T10:29:40.974Z,18.96
2022-09-21T10:32:14.759Z,19.27
2022-09-21T10:35:01.092Z,19.58
2022-09-21T10:37:29.409Z,20.11
2022-09-21T10:39:57.207Z,20.10
2022-09-21T10:42:24.001Z,20.47
2022-09-21T10:45:05.143Z,20.17
2022-09-21T10:47:39.191Z,20.18
2022-09-21T10:50:20.770Z,20.56
2022-09-21T10:52:48.869Z,20.12
2022-09-21T10:55:21.882Z,19.71
2022-09-21T10:57:51.076Z,18.79
2022-09-21T11:00:34.890Z,18.95
2022-09-21T11:03:26.727Z,19.53
2022-09-21T11:05:55.114Z,18.51
2022-09-21T11:08:32.856Z,19.13
2022-09-21T11:11:21.451Z,18.92
2022-09-21T11:14:05.494Z,19.93
2022-09-21T11:16:54.467Z,20.13
2022-09-21T11:19:36.339Z,19.42
2022-09-21T11:22:15.016Z,19.45
2022-09-21T11:24:55.522Z,20.13
2022-09-21T11:27:32.282Z,19.39
2022-09-21T11:30:04.854Z,19.03
2022-09-21T11:32:37.652Z,19.34
2022-09-21T11:35:24.212Z,19.40
2022-09-21T11:38:04.441Z,19.48
2022-09-21T11:40:40.471Z,19.44
2022-09-21T11:43:35.610Z,20.53
2022-09-21T11:46:17.571Z,20.63
2022-09-21T11:49:06.058Z,21.12
2022-09-21T11:52:10.503Z,20.81
2022-09-21T11:54:56.451Z,20.47
2022-09-21T11:57:42.710Z,19.94
2022-09-21T12:00:15.800Z,20.21
2022-09-21T12:03:03.901Z,19.84
2022-09-21T12:05:36.721Z,20.14
2022-09-21T12:08:34.758Z,20.41
2022-09-21T12:11:17.016Z,19.82
2022-09-21T12:13:57.535Z,19.31
2022-09-21T12:16:27.763Z,19.81
2022-09-21T12:19:15.468Z,19.21
2022-09-21T12:21:56.208Z,18.40
2022-09-21T12:24:33.860Z,18.49
2022-09-21T12:27:12.356Z,18.42
2022-09-21T12:29:47.952Z,18.98
2022-09-21T12:32:20.374Z,19.23
2022-09-21T12:34:56.405Z,19.20
2022-09-21T12:37:37.306Z,18.59
2022-09-21T12:40:15.669Z,18.62
2022-09-21T12:42:50.924Z,18.84
2022-09-21T12:45:25.469Z,19.48
2022-09-21T12:48:11.056Z,19.96
2022-09-21T12:51:06.428Z,19.80
2022-09-21T12:53:37.827Z,19.77
2022-09-21T12:56:51.942Z,20.49
2022-09-21T12:59:34.672Z,21.29
2022-09-21T13:02:26.418Z,20.32
2022-09-21T13:05:16.214Z,20.35
2022-09-21T13:08:06.604Z,20.13
2022-09-21T13:10:51.700Z,20.30
2022-09-21T13:13:39.748Z,20.14
2022-09-21T13:16:07.909Z,20.06
2022-09-21T13:18:38.737Z,20.27
2022-09-21T13:21:22.239Z,20.06
2022-09-21T13:24:00.346Z,19.54
2022-09-21T13:26:43.853Z,19.40
2022-09-21T13:29:16.944Z,19.84
2022-09-21T13:31:58.165Z,19.83
2022-09-21T13:34:42.662Z,20.05
2022-09-21T13:37:13.948Z,20.12
2022-09-21T13:40:16.276Z,20.35
2022-09-21T13:42:49.362Z,20.86
2022-09-21T13:45:18.812Z,20.84
2022-09-21T13:47:51.576Z,20.96
2022-09-21T13:50:56.428Z,21.40
2022-09-21T13:53:38.414Z,21.10
2022-09-21T13:56:18.088Z,20.04
2022-09-21T13:58:52.237Z,20.13
2022-09-21T14:04:41.320Z,20.17
2022-09-21T14:07:08.666Z,19.43
2022-09-21T14:09:57.773Z,19.33
2022-09-21T14:12:27.697Z,19.70
2022-09-21T14:15:16.264Z,19.83
2022-09-21T14:17:43.872Z,20.01
2022-09-21T14:20:32.717Z,20.06
2022-09-21T14:23:24.375Z,19.97
2022-09-21T14:25:54.431Z,19.78
2022-09-21T14:28:27.632Z,19.37
2022-09-21T14:31:02.767Z,19.35
2022-09-21T14:33:43.035Z,19.54
2022-09-21T14:36:19.659Z,19.85
2022-09-21T14:38:54.990Z,20.01
2022-09-21T14:41:24.510Z,20.16
2022-09-21T14:43:56.782Z,20.20
2022-09-21T14:46:23.506Z,19.65
2022-09-21T14:48:54.139Z,19.10
2022-09-21T14:51:36.576Z,18.97
2022-09-21T14:54:21.857Z,19.41
2022-09-21T14:57:08.627Z,19.31
2022-09-21T15:00:02.687Z,19.17
2022-09-21T15:02:35.805Z,19.45
2022-09-21T15:05:19.047Z,19.26
2022-09-21T15:08:23.367Z,19.19
2022-09-21T15:11:18.847Z,19.65
2022-09-21T15:13:53.491Z,18.83
2022-09-21T15:16:40.459Z,19.16
2022-09-21T15:19:20.478Z,19.17
2022-09-21T15:21:52.951Z,18.94
2022-09-21T15:24:28.075Z,19.09
2022-09-21T15:27:03.054Z,19.05
2022-09-21T15:29:32.566Z,18.50
2022-09-21T15:32:01.090Z,18.37
2022-09-21T15:34:28.445Z,18.69
2022-09-21T15:37:06.520Z,18.86
2022-09-21T15:39:34.070Z,18.60
2022-09-21T15:42:09.894Z,19.07
2022-09-21T15:44:38.716Z,19.17
2022-09-21T15:47:12.548Z,19.05
2022-09-21T15:49:40.401Z,19.10
2022-09-21T15:52:25.134Z,19.21
2022-09-21T15:54:58.613Z,18.88
2022-09-21T15:57:40.391Z,19.05
2022-09-21T16:00:19.636Z,19.00
2022-09-21T16:03:04.272Z,19.25
2022-09-21T16:05:47.157Z,18.55
2022-09-21T16:08:28.213Z,18.87
2022-09-21T16:11:12.354Z,18.18
2022-09-21T16:13:58.839Z,18.24
2022-09-21T16:16:26.895Z,18.45
2022-09-21T16:18:55.947Z,18.30
2022-09-21T16:21:32.944Z,18.17
2022-09-21T16:24:18.648Z,18.28
2022-09-21T16:26:58.208Z,18.33
2022-09-21T16:29:39.521Z,18.00
2022-09-21T16:32:35.643Z,18.15
2022-09-21T16:35:27.943Z,17.99
2022-09-21T16:37:58.282Z,17.83
2022-09-21T16:40:26.975Z,17.63
2022-09-21T16:42:54.307Z,17.44
2022-09-21T16:45:32.351Z,18.02
2022-09-21T16:48:00.084Z,17.65
2022-09-21T16:50:27.058Z,17.79
2022-09-21T16:52:53.937Z,17.97
2022-09-21T16:55:24.343Z,17.81
2022-09-21T16:57:53.961Z,17.36
2022-09-21T17:00:22.148Z,17.70
2022-09-21T17:02:49.597Z,17.51
2022-09-21T17:05:19.409Z,17.74
2022-09-21T17:07:53.566Z,17.70
2022-09-21T17:10:24.271Z,17.62
2022-09-21T17:12:53.778Z,17.30
2022-09-21T17:15:22.857Z,17.78
2022-09-21T17:17:50.561Z,17.41
2022-09-21T17:20:29.419Z,17.51
2022-09-21T17:22:56.264Z,17.67
2022-09-21T17:25:23.024Z,17.71
2022-09-21T17:27:49.694Z,17.75
2022-09-21T17:30:17.526Z,17.69
2022-09-21T17:32:44.380Z,17.74
2022-09-21T17:35:22.590Z,17.34
2022-09-21T17:37:49.436Z,17.11
2022-09-21T17:40:16.716Z,16.84
2022-09-21T17:42:48.378Z,16.72
2022-09-21T17:45:27.726Z,17.06
2022-09-21T17:47:54.711Z,17.40
2022-09-21T17:50:27.494Z,17.43
2022-09-21T17:53:15.224Z,16.72
2022-09-21T17:55:57.021Z,16.44
2022-09-21T17:58:48.555Z,15.95
2022-09-21T18:01:34.988Z,16.18
2022-09-21T18:04:03.000Z,15.68
2022-09-21T18:06:29.992Z,16.02
2022-09-21T18:08:57.933Z,15.68
2022-09-21T18:11:27.560Z,16.20
2022-09-21T18:14:15.394Z,16.22
2022-09-21T18:17:36.162Z,16.04
2022-09-21T18:20:35.358Z,16.05
2022-09-21T18:23:20.969Z,16.06
2022-09-21T18:25:55.239Z,16.02
2022-09-21T18:28:25.069Z,15.94
2022-09-21T18:31:14.885Z,15.87
2022-09-21T18:33:56.979Z,16.34
2022-09-21T18:36:42.475Z,15.46
2022-09-21T18:39:22.469Z,14.84
2022-09-21T18:42:10.852Z,15.79
2022-09-21T18:45:02.876Z,16.01
2022-09-21T18:47:59.895Z,15.64
2022-09-21T18:50:36.716Z,15.37
2022-09-21T18:53:15.697Z,15.74
2022-09-21T18:55:42.777Z,15.45
2022-09-21T18:58:10.338Z,14.53
2022-09-21T19:00:37.643Z,14.73
2022-09-21T19:03:23.623Z,15.05
2022-09-21T19:06:08.630Z,14.80
2022-09-21T19:08:44.907Z,14.66
2022-09-21T19:11:19.516Z,14.65
2022-09-21T19:14:12.181Z,14.81
2022-09-21T19:16:54.302Z,14.91
2022-09-21T19:19:37.041Z,14.73
2022-09-21T19:22:31.173Z,14.93
2022-09-21T19:25:12.452Z,14.52
2022-09-21T19:27:43.103Z,14.80
2022-09-21T19:30:14.351Z,14.79
2022-09-21T19:32:44.459Z,14.38
2022-09-21T19:35:27.250Z,14.16
2022-09-21T19:37:56.973Z,14.10
2022-09-21T19:40:30.219Z,13.90
2022-09-21T19:43:06.257Z,13.45
2022-09-21T19:45:52.037Z,13.82
2022-09-21T19:48:22.792Z,13.95
2022-09-21T19:50:55.107Z,14.08
2022-09-21T19:53:41.477Z,14.19
2022-09-21T19:56:30.029Z,13.45
2022-09-21T19:59:15.805Z,13.16
2022-09-21T20:02:01.751Z,13.76
2022-09-21T20:04:34.636Z,13.88
2022-09-21T20:07:11.803Z,13.99
2022-09-21T20:09:45.433Z,14.25
2022-09-21T20:12:40.271Z,13.92
2022-09-21T20:15:15.855Z,14.41
2022-09-21T20:18:00.207Z,13.76
2022-09-21T20:20:28.701Z,13.95
2022-09-21T20:22:56.215Z,13.72
2022-09-21T20:25:27.815Z,14.38
2022-09-21T20:27:56.701Z,13.84
2022-09-21T20:30:26.455Z,13.56
2022-09-21T20:32:56.981Z,13.70
2022-09-21T20:35:28.099Z,13.65
2022-09-21T20:37:59.870Z,13.64
2022-09-21T20:40:29.113Z,14.17
2022-09-21T20:42:57.485Z,13.70
2022-09-21T20:45:24.870Z,14.31
2022-09-21T20:47:53.466Z,14.05
2022-09-21T20:50:21.325Z,13.76
2022-09-21T20:52:52.240Z,13.95
2022-09-21T20:55:20.412Z,13.50
2022-09-21T20:57:47.310Z,13.93
2022-09-21T21:00:16.117Z,13.45
2022-09-21T21:02:43.299Z,13.53
2022-09-21T21:05:11.383Z,13.60
2022-09-21T21:07:42.473Z,13.46
2022-09-21T21:10:14.376Z,13.39
2022-09-21T21:12:42.303Z,14.08
2022-09-21T21:15:10.210Z,13.63
2022-09-21T21:17:39.183Z,14.04
2022-09-21T21:20:07.178Z,14.21
2022-09-21T21:22:35.317Z,13.91
2022-09-21T21:25:02.202Z,14.09
2022-09-21T21:27:29.102Z,13.47
2022-09-21T21:29:56.429Z,12.81
2022-09-21T21:32:26.262Z,13.57
2022-09-21T21:34:54.467Z,13.38
2022-09-21T21:37:24.927Z,13.52
2022-09-21T21:39:55.507Z,13.78
2022-09-21T21:42:24.934Z,13.40
2022-09-21T21:44:52.025Z,13.79
2022-09-21T21:50:06.501Z,14.11
2022-09-21T21:52:33.331Z,13.56
2022-09-21T21:55:00.210Z,13.77
2022-09-21T21:57:27.073Z,13.80
2022-09-21T21:59:54.137Z,13.94
2022-09-21T22:02:20.865Z,13.76
2022-09-21T22:04:47.933Z,13.74
2022-09-21T22:07:14.787Z,13.36
2022-09-21T22:09:41.733Z,13.48
2022-09-21T22:12:11.995Z,12.92
2022-09-21T22:14:38.914Z,13.33
2022-09-21T22:17:05.643Z,13.14
2022-09-21T22:19:33.010Z,13.16
2022-09-21T22:22:00.033Z,12.97
2022-09-21T22:24:26.731Z,12.95
2022-09-21T22:26:53.554Z,12.97
2022-09-21T22:29:20.343Z,13.03
2022-09-21T22:31:48.915Z,13.55
2022-09-21T22:34:16.584Z,13.69
2022-09-21T22:36:44.038Z,13.11
2022-09-21T22:39:12.239Z,13.09
2022-09-21T22:41:41.114Z,13.69
2022-09-21T22:44:08.696Z,13.69
2022-09-21T22:46:36.102Z,13.26
2022-09-21T22:49:03.332Z,13.38
2022-09-21T22:51:30.366Z,13.79
2022-09-21T22:53:57.886Z,13.97
2022-09-21T22:56:32.644Z,13.72
2022-09-21T22:59:02.539Z,13.20
2022-09-21T23:01:40.455Z,13.51
2022-09-21T23:04:13.168Z,13.69
2022-09-21T23:06:42.872Z,12.28
2022-09-21T23:09:15.252Z,13.02
2022-09-21T23:11:47.192Z,12.97
2022-09-21T23:14:15.865Z,13.12
2022-09-21T23:16:43.415Z,13.08
2022-09-21T23:19:15.710Z,13.49
2022-09-21T23:21:49.636Z,13.26
2022-09-21T23:24:17.456Z,13.55
2022-09-21T23:26:45.288Z,13.11
2022-09-21T23:29:14.902Z,12.60
2022-09-21T23:31:45.054Z,12.80
2022-09-21T23:34:13.263Z,12.80
2022-09-21T23:36:40.919Z,12.97
2022-09-21T23:39:11.557Z,12.87
2022-09-21T23:41:38.281Z,12.81
2022-09-21T23:44:05.091Z,12.96
2022-09-21T23:46:34.441Z,12.83
2022-09-21T23:49:01.951Z,13.06
2022-09-21T23:51:30.096Z,12.88
2022-09-21T23:53:58.048Z,12.69
2022-09-21T23:56:25.515Z,13.02
2022-09-21T23:58:52.938Z,12.55
